Time;durP1;ratioP1;P1;durP2;ratioP2;P2;SDS_P1;SDS_P2;PMS_P1;PMS_P2;Temp;Humidity;BMP_temperature;BMP_pressure;BME280_temperature;BME280_humidity;BME280_pressure;Samples;Min_cycle;Max_cycle;Signal;HPM_P1;HPM_P2
2023/05/09 00:02:39;;;;;;;3.85;2.80;;;18.30;83.00;;;;;;10715067;33;20026;-72
2023/05/09 00:08:41;;;;;;;6.05;3.70;;;18.30;83.40;;;;;;10719096;33;20413;-72
2023/05/09 00:14:44;;;;;;;4.37;3.08;;;18.50;83.50;;;;;;10717706;33;20055;-71
2023/05/09 00:20:48;;;;;;;6.47;4.07;;;18.50;83.40;;;;;;10717589;33;20446;-71
2023/05/09 00:26:50;;;;;;;7.07;4.78;;;18.40;83.30;;;;;;10715200;33;20025;-71
2023/05/09 00:32:52;;;;;;;6.65;4.72;;;18.30;83.20;;;;;;10717809;33;20075;-71
2023/05/09 00:38:54;;;;;;;6.47;4.37;;;18.30;83.60;;;;;;10718191;33;20025;-71
2023/05/09 00:44:57;;;;;;;5.57;3.62;;;18.30;83.50;;;;;;10715301;33;20395;-72
2023/05/09 00:51:00;;;;;;;5.30;3.67;;;18.20;83.70;;;;;;10714067;33;20032;-71
2023/05/09 00:57:02;;;;;;;5.60;3.97;;;18.30;83.40;;;;;;10717106;33;20078;-73
2023/05/09 01:03:06;;;;;;;6.18;4.03;;;18.20;83.60;;;;;;10715239;33;20033;-72
2023/05/09 01:09:54;;;;;;;6.25;3.92;;;18.30;83.80;;;;;;10715062;33;20052;-72
2023/05/09 01:16:18;;;;;;;6.57;4.55;;;18.30;84.00;;;;;;10714633;33;20056;-73
2023/05/09 01:22:25;;;;;;;5.87;3.72;;;18.20;84.00;;;;;;10715401;33;20051;-71
2023/05/09 01:28:48;;;;;;;5.40;2.65;;;18.20;84.10;;;;;;10717083;33;20395;-72
2023/05/09 01:34:53;;;;;;;4.57;2.80;;;18.30;83.70;;;;;;10715000;33;20051;-72
2023/05/09 01:40:58;;;;;;;5.28;3.70;;;18.30;83.90;;;;;;10715085;33;20044;-73
2023/05/09 01:47:01;;;;;;;4.03;2.80;;;18.20;83.90;;;;;;10715104;33;20024;-73
2023/05/09 01:53:05;;;;;;;4.95;3.45;;;18.20;84.00;;;;;;10712247;33;20021;-73
2023/05/09 01:59:12;;;;;;;4.12;3.12;;;18.30;83.90;;;;;;10712516;33;20041;-73
2023/05/09 02:05:16;;;;;;;7.07;3.00;;;18.30;83.70;;;;;;10714383;33;20025;-72
2023/05/09 02:11:17;;;;;;;5.55;3.90;;;18.30;83.50;;;;;;10714588;33;20390;-73
2023/05/09 02:17:20;;;;;;;4.85;2.90;;;18.30;83.40;;;;;;10718728;33;20430;-72
2023/05/09 02:23:22;;;;;;;3.55;2.72;;;18.30;83.50;;;;;;10718241;33;20056;-73
2023/05/09 02:29:30;;;;;;;5.43;3.65;;;18.30;83.50;;;;;;10718474;33;20025;-73
2023/05/09 02:35:34;;;;;;;4.43;2.50;;;18.20;83.70;;;;;;10716217;33;20060;-73
2023/05/09 02:41:36;;;;;;;6.70;3.45;;;18.30;83.60;;;;;;10715940;33;20047;-73
2023/05/09 02:47:38;;;;;;;3.67;2.47;;;18.20;83.60;;;;;;10717611;33;20025;-73
2023/05/09 02:53:40;;;;;;;3.45;2.90;;;18.20;83.60;;;;;;10719610;33;20347;-73
2023/05/09 02:59:42;;;;;;;6.55;3.92;;;18.10;83.50;;;;;;10718929;33;20532;-73
2023/05/09 03:06:13;;;;;;;5.37;3.05;;;18.10;83.40;;;;;;10718330;33;20029;-74
2023/05/09 03:12:16;;;;;;;5.28;3.10;;;18.10;83.50;;;;;;10720242;33;20457;-73
2023/05/09 03:18:18;;;;;;;4.90;3.17;;;18.10;83.70;;;;;;10720109;33;20021;-73
2023/05/09 03:24:21;;;;;;;5.70;2.95;;;18.10;83.60;;;;;;10718410;33;20044;-74
2023/05/09 03:30:25;;;;;;;4.28;3.15;;;18.00;83.60;;;;;;10714273;33;20021;-74
2023/05/09 03:36:28;;;;;;;5.43;3.10;;;18.00;83.50;;;;;;10718242;32;20445;-74
2023/05/09 03:42:31;;;;;;;3.17;2.15;;;17.90;83.40;;;;;;10717548;33;20033;-74
2023/05/09 03:48:38;;;;;;;9.77;5.03;;;17.90;83.40;;;;;;10717233;33;20047;-74
2023/05/09 03:54:42;;;;;;;4.16;2.96;;;17.80;83.40;;;;;;10717890;33;20029;-74
2023/05/09 04:00:47;;;;;;;4.62;3.12;;;17.80;83.20;;;;;;10716733;33;20025;-74
2023/05/09 04:06:51;;;;;;;2.83;2.08;;;17.80;83.30;;;;;;10714701;33;20024;-73
2023/05/09 04:12:54;;;;;;;4.15;2.80;;;17.70;83.20;;;;;;10716306;33;20323;-73
2023/05/09 04:18:57;;;;;;;6.43;4.07;;;17.60;83.30;;;;;;10717627;33;20052;-73
2023/05/09 04:25:03;;;;;;;6.03;3.60;;;17.50;83.40;;;;;;10715573;33;20017;-73
2023/05/09 04:31:06;;;;;;;5.87;4.03;;;17.50;83.30;;;;;;10716558;32;20036;-73
2023/05/09 04:37:09;;;;;;;4.47;2.83;;;17.70;83.40;;;;;;10713712;33;20029;-74
2023/05/09 04:43:13;;;;;;;3.87;2.35;;;17.80;83.20;;;;;;10713647;33;20025;-72
2023/05/09 04:49:16;;;;;;;5.05;3.30;;;17.80;83.20;;;;;;10714912;33;20032;-73
2023/05/09 04:55:20;;;;;;;5.35;4.05;;;17.80;83.30;;;;;;10716015;33;20024;-74
2023/05/09 05:01:26;;;;;;;4.55;3.22;;;17.90;83.30;;;;;;10716579;33;20021;-74
2023/05/09 05:07:29;;;;;;;5.25;3.15;;;17.90;83.40;;;;;;10715493;33;20033;-74
2023/05/09 05:13:33;;;;;;;3.60;2.47;;;18.00;83.50;;;;;;10714895;33;20052;-74
2023/05/09 05:19:45;;;;;;;6.05;2.97;;;18.00;83.50;;;;;;10716347;33;20051;-74
2023/05/09 05:25:47;;;;;;;4.03;2.80;;;18.00;83.70;;;;;;10715195;33;20014;-74
2023/05/09 05:31:53;;;;;;;4.32;3.35;;;18.00;83.90;;;;;;10715166;33;20009;-74
2023/05/09 05:37:55;;;;;;;4.68;2.97;;;18.00;84.00;;;;;;10711155;33;20025;-74
2023/05/09 05:43:58;;;;;;;5.12;3.78;;;18.00;84.10;;;;;;10715968;33;20028;-74
2023/05/09 05:50:32;;;;;;;6.25;3.42;;;18.10;84.10;;;;;;10714456;33;20434;-74
2023/05/09 05:56:42;;;;;;;5.07;3.75;;;18.20;83.90;;;;;;10714470;33;20021;-74
2023/05/09 06:02:48;;;;;;;6.55;4.82;;;18.20;83.90;;;;;;10714564;32;20029;-74
2023/05/09 06:08:52;;;;;;;7.68;5.18;;;18.20;83.80;;;;;;10714653;33;20417;-74
2023/05/09 06:14:55;;;;;;;4.70;3.50;;;18.20;83.60;;;;;;10711991;33;20059;-74
2023/05/09 06:20:57;;;;;;;5.60;3.75;;;18.20;83.50;;;;;;10713897;33;20051;-74
2023/05/09 06:27:00;;;;;;;8.32;4.15;;;18.30;83.60;;;;;;10713060;33;20052;-74
2023/05/09 06:33:02;;;;;;;10.52;5.35;;;18.40;83.10;;;;;;10710958;33;20407;-74
2023/05/09 06:39:04;;;;;;;4.97;3.17;;;18.40;82.40;;;;;;10711883;33;20425;-74
2023/05/09 06:45:07;;;;;;;4.72;3.28;;;18.40;82.20;;;;;;10711805;33;20020;-74
2023/05/09 06:51:31;;;;;;;9.38;6.05;;;18.50;82.20;;;;;;10710446;33;20029;-77
2023/05/09 06:57:34;;;;;;;6.95;4.53;;;18.60;81.30;;;;;;10721733;33;20043;-74
2023/05/09 07:03:36;;;;;;;7.12;4.72;;;18.80;81.60;;;;;;10716074;33;20032;-73
2023/05/09 07:09:38;;;;;;;5.97;4.15;;;19.00;81.50;;;;;;10717572;33;20070;-72
2023/05/09 07:15:41;;;;;;;5.75;3.78;;;19.20;80.60;;;;;;10716268;33;20055;-73
2023/05/09 07:21:43;;;;;;;5.65;3.55;;;19.30;79.90;;;;;;10718055;33;20091;-73
2023/05/09 07:27:46;;;;;;;6.10;4.45;;;19.50;79.80;;;;;;10716962;33;20311;-73
2023/05/09 07:33:51;;;;;;;5.95;4.43;;;19.80;80.20;;;;;;10718630;33;20055;-73
2023/05/09 07:39:53;;;;;;;6.90;5.43;;;19.80;79.60;;;;;;10718511;33;20075;-73
2023/05/09 07:45:55;;;;;;;7.25;5.78;;;19.70;77.90;;;;;;10716760;33;20029;-74
2023/05/09 07:51:57;;;;;;;7.70;5.72;;;19.70;78.00;;;;;;10500569;27;6976414;-75
2023/05/09 07:57:59;;;;;;;7.25;5.47;;;19.70;77.80;;;;;;10679855;33;20051;-72
2023/05/09 08:04:01;;;;;;;7.78;5.45;;;19.80;79.40;;;;;;10682475;33;20025;-74
2023/05/09 08:10:05;;;;;;;7.35;4.45;;;19.80;79.50;;;;;;10677985;33;20044;-74
2023/05/09 08:16:07;;;;;;;7.60;5.37;;;20.00;78.90;;;;;;10682341;33;20025;-72
2023/05/09 08:22:21;;;;;;;14.43;5.85;;;20.10;78.40;;;;;;10680951;33;20040;-72
2023/05/09 08:28:23;;;;;;;8.20;4.90;;;20.20;78.60;;;;;;10681583;33;20076;-72
2023/05/09 08:34:26;;;;;;;7.68;5.43;;;20.10;78.20;;;;;;10679540;33;20067;-76
2023/05/09 08:40:34;;;;;;;14.15;6.20;;;20.30;77.40;;;;;;10676881;33;20051;-72
2023/05/09 08:46:43;;;;;;;8.13;5.82;;;20.30;78.90;;;;;;10680216;33;20040;-74
2023/05/09 08:52:46;;;;;;;7.20;5.23;;;20.30;78.70;;;;;;10678846;33;20335;-74
2023/05/09 08:58:48;;;;;;;8.43;3.95;;;20.40;78.30;;;;;;10678565;33;20392;-74
2023/05/09 09:04:50;;;;;;;7.72;5.65;;;20.50;76.70;;;;;;10678043;33;20052;-74
2023/05/09 09:10:53;;;;;;;9.50;7.35;;;20.60;75.30;;;;;;10679717;33;20017;-76
2023/05/09 09:16:57;;;;;;;8.70;6.65;;;20.60;75.10;;;;;;10677095;33;20063;-71
2023/05/09 09:23:02;;;;;;;9.50;7.90;;;20.70;75.30;;;;;;10676509;33;20336;-72
2023/05/09 09:29:05;;;;;;;6.78;4.85;;;20.70;74.50;;;;;;10678768;33;20040;-75
2023/05/09 09:35:09;;;;;;;9.32;5.90;;;20.80;74.30;;;;;;10678139;33;20026;-75
2023/05/09 09:41:12;;;;;;;6.60;4.57;;;21.10;75.90;;;;;;10677609;32;20345;-72
2023/05/09 09:47:14;;;;;;;7.40;5.47;;;21.20;74.50;;;;;;10675051;33;20375;-72
2023/05/09 09:53:19;;;;;;;9.73;5.35;;;21.30;73.30;;;;;;10675261;33;20018;-73
2023/05/09 09:59:23;;;;;;;6.53;4.40;;;21.30;74.00;;;;;;10678997;33;20327;-74
2023/05/09 10:05:30;;;;;;;6.20;4.22;;;21.30;73.50;;;;;;10674868;33;20047;-76
2023/05/09 10:11:49;;;;;;;7.93;4.95;;;21.40;73.90;;;;;;10677138;33;20021;-74
2023/05/09 10:18:02;;;;;;;5.87;4.60;;;21.60;73.80;;;;;;10678837;33;20034;-76
2023/05/09 10:24:45;;;;;;;8.70;5.10;;;21.70;73.00;;;;;;10678582;33;20048;-75
2023/05/09 10:31:12;;;;;;;8.65;4.80;;;21.80;73.00;;;;;;10677323;33;20040;-72
2023/05/09 10:37:22;;;;;;;4.65;3.30;;;21.90;72.20;;;;;;10678648;33;20064;-73
2023/05/09 10:43:36;;;;;;;7.62;4.50;;;22.10;70.70;;;;;;10680566;33;20053;-73
2023/05/09 10:49:48;;;;;;;7.53;6.07;;;22.30;70.00;;;;;;10672054;33;20063;-73
2023/05/09 10:55:56;;;;;;;9.23;6.45;;;22.50;70.10;;;;;;10683570;33;20032;-72
2023/05/09 11:02:10;;;;;;;7.43;5.40;;;22.70;69.20;;;;;;10683420;33;20051;-72
2023/05/09 11:08:19;;;;;;;7.25;4.45;;;22.80;68.30;;;;;;10684220;33;20017;-72
2023/05/09 11:14:36;;;;;;;5.20;3.55;;;22.60;67.80;;;;;;10680150;32;20060;-72
2023/05/09 11:20:44;;;;;;;8.77;6.97;;;22.70;68.90;;;;;;10681544;33;20025;-72
2023/05/09 11:26:48;;;;;;;8.47;6.10;;;23.10;69.00;;;;;;10680541;33;20036;-72
2023/05/09 11:32:54;;;;;;;8.20;6.57;;;23.40;68.00;;;;;;10679177;32;20060;-72
2023/05/09 11:39:01;;;;;;;5.78;3.58;;;23.50;69.40;;;;;;10680126;33;20022;-73
2023/05/09 11:45:06;;;;;;;7.12;5.22;;;23.50;69.30;;;;;;10679303;33;20339;-73
2023/05/09 11:51:16;;;;;;;8.30;4.87;;;23.60;69.20;;;;;;10678673;33;20018;-73
2023/05/09 11:57:19;;;;;;;6.80;5.62;;;23.40;66.70;;;;;;10679747;33;20063;-73
2023/05/09 12:03:22;;;;;;;7.18;4.55;;;23.20;67.30;;;;;;10681341;33;20064;-72
2023/05/09 12:09:29;;;;;;;5.03;2.92;;;23.20;66.60;;;;;;10681577;33;20053;-72
2023/05/09 12:15:38;;;;;;;5.22;3.83;;;23.30;64.50;;;;;;10681558;33;20048;-72
2023/05/09 12:21:40;;;;;;;5.85;4.07;;;23.60;65.20;;;;;;10680706;33;20026;-73
2023/05/09 12:27:42;;;;;;;7.25;4.90;;;23.70;64.70;;;;;;10678159;33;20021;-74
2023/05/09 12:33:44;;;;;;;8.15;4.85;;;23.80;68.90;;;;;;10679488;33;20041;-73
2023/05/09 12:40:11;;;;;;;14.40;4.78;;;23.50;67.40;;;;;;10681529;33;20029;-75
2023/05/09 12:46:18;;;;;;;3.17;2.15;;;23.50;66.30;;;;;;10679574;33;20037;-73
2023/05/09 12:52:20;;;;;;;5.43;3.05;;;23.60;65.40;;;;;;10676447;33;20026;-73
2023/05/09 12:58:28;;;;;;;5.40;3.83;;;23.70;67.00;;;;;;10677496;33;20297;-73
2023/05/09 13:04:29;;;;;;;4.43;2.85;;;23.70;67.50;;;;;;10680482;33;20392;-72
2023/05/09 13:10:35;;;;;;;4.05;2.67;;;23.50;67.20;;;;;;10677971;33;20029;-73
2023/05/09 13:16:42;;;;;;;4.18;3.00;;;23.50;66.30;;;;;;10674503;33;20036;-73
2023/05/09 13:22:45;;;;;;;5.15;4.03;;;23.50;66.80;;;;;;10675701;33;20057;-75
2023/05/09 13:28:47;;;;;;;5.90;4.07;;;23.50;66.20;;;;;;10679117;33;20096;-74
2023/05/09 13:34:50;;;;;;;4.22;3.20;;;23.30;68.10;;;;;;10680112;33;20403;-75
2023/05/09 13:40:52;;;;;;;9.13;4.50;;;23.30;65.40;;;;;;10678873;33;20331;-75
2023/05/09 13:46:56;;;;;;;4.82;3.20;;;23.50;65.60;;;;;;10678357;33;20305;-74
2023/05/09 13:53:02;;;;;;;8.43;4.60;;;23.30;66.20;;;;;;10677882;33;20017;-73
2023/05/09 13:59:05;;;;;;;4.78;2.97;;;23.30;66.10;;;;;;10675056;33;20041;-73
2023/05/09 14:05:07;;;;;;;6.28;3.30;;;23.30;65.40;;;;;;10675608;33;20037;-74
2023/05/09 14:11:09;;;;;;;5.35;3.25;;;23.40;66.80;;;;;;10678716;33;20033;-73
2023/05/09 14:17:12;;;;;;;6.47;3.97;;;23.30;67.40;;;;;;10678066;33;20313;-71
2023/05/09 14:23:15;;;;;;;6.95;3.10;;;23.30;67.80;;;;;;10684202;33;20083;-77
2023/05/09 14:29:17;;;;;;;6.47;4.00;;;23.30;67.50;;;;;;10679874;33;20025;-72
2023/05/09 14:35:22;;;;;;;5.22;3.45;;;23.30;67.30;;;;;;10684965;33;20052;-75
2023/05/09 14:41:24;;;;;;;6.82;4.32;;;23.40;65.30;;;;;;10684412;33;20030;-72
2023/05/09 14:47:28;;;;;;;4.95;2.72;;;23.40;66.90;;;;;;10684626;33;20029;-72
2023/05/09 14:53:30;;;;;;;3.75;2.95;;;23.30;66.50;;;;;;10683723;33;20021;-72
2023/05/09 14:59:33;;;;;;;4.78;2.75;;;23.50;66.40;;;;;;10679400;33;20331;-72
2023/05/09 15:05:35;;;;;;;6.00;3.80;;;23.50;66.00;;;;;;10681890;33;20056;-74
2023/05/09 15:11:38;;;;;;;2.58;1.83;;;23.60;65.90;;;;;;10678724;33;20415;-71
2023/05/09 15:17:41;;;;;;;6.65;4.03;;;23.50;64.80;;;;;;10682684;33;20441;-72
2023/05/09 15:23:44;;;;;;;6.25;3.58;;;23.40;66.20;;;;;;10678270;33;20067;-72
2023/05/09 15:29:47;;;;;;;5.12;3.33;;;23.30;66.30;;;;;;10680470;33;20054;-73
2023/05/09 15:35:49;;;;;;;4.53;3.05;;;23.20;66.60;;;;;;10679275;33;20056;-72
2023/05/09 15:41:51;;;;;;;6.05;2.35;;;23.10;66.50;;;;;;10682298;33;20039;-72
2023/05/09 15:47:53;;;;;;;3.35;2.72;;;23.20;65.70;;;;;;10680431;33;20033;-73
2023/05/09 15:53:55;;;;;;;4.85;2.72;;;23.30;65.30;;;;;;10705845;27;20072;-73
2023/05/09 15:59:57;;;;;;;9.13;4.07;;;23.30;64.50;;;;;;10714858;33;20403;-73
2023/05/09 16:05:59;;;;;;;4.50;3.08;;;23.20;65.10;;;;;;10718107;33;20028;-72
2023/05/09 16:12:02;;;;;;;5.95;3.33;;;23.20;65.10;;;;;;10717878;33;20025;-73
2023/05/09 16:18:04;;;;;;;5.00;2.00;;;23.20;65.30;;;;;;10718146;33;20048;-73
2023/05/09 16:24:06;;;;;;;4.10;2.95;;;23.20;64.60;;;;;;10718233;33;20051;-73
2023/05/09 16:30:09;;;;;;;5.03;2.87;;;23.10;64.50;;;;;;10718717;33;20429;-70
2023/05/09 16:36:13;;;;;;;3.90;2.10;;;23.00;65.20;;;;;;10713601;33;20028;-73
2023/05/09 16:42:17;;;;;;;11.20;2.47;;;23.10;64.90;;;;;;10716617;33;20029;-73
2023/05/09 16:48:24;;;;;;;8.23;2.65;;;23.10;65.10;;;;;;10717503;33;20025;-74
2023/05/09 16:54:26;;;;;;;4.10;2.62;;;23.10;64.90;;;;;;10711208;33;20033;-73
2023/05/09 17:00:28;;;;;;;3.60;2.33;;;22.90;66.00;;;;;;10677015;33;20032;-73
2023/05/09 17:06:31;;;;;;;6.05;2.25;;;22.80;65.50;;;;;;10678864;33;20358;-71
2023/05/09 17:12:34;;;;;;;2.97;2.37;;;22.80;65.50;;;;;;10678482;33;20037;-72
2023/05/09 17:18:37;;;;;;;3.92;2.67;;;22.70;65.40;;;;;;10680325;33;20044;-73
2023/05/09 17:24:41;;;;;;;2.90;1.90;;;22.60;65.80;;;;;;10677885;33;20016;-72
2023/05/09 17:31:02;;;;;;;3.17;2.00;;;22.50;66.30;;;;;;10677924;33;20025;-72
2023/05/09 17:37:06;;;;;;;2.40;1.33;;;22.60;66.40;;;;;;10676658;33;20091;-72
2023/05/09 17:43:08;;;;;;;1.80;1.60;;;22.60;67.10;;;;;;10678724;33;20052;-72
2023/05/09 17:49:27;;;;;;;2.62;1.58;;;22.50;67.60;;;;;;10687824;33;20032;-72
2023/05/09 17:56:10;;;;;;;5.80;1.60;;;22.40;68.00;;;;;;10707574;33;20048;-72
2023/05/09 18:02:12;;;;;;;2.05;1.40;;;22.30;68.60;;;;;;10711103;33;20029;-72
2023/05/09 18:08:15;;;;;;;1.55;1.10;;;22.20;68.90;;;;;;10698251;33;20067;-73
2023/05/09 18:14:28;;;;;;;1.70;1.23;;;22.20;69.00;;;;;;10702065;32;20063;-72
2023/05/09 18:21:13;;;;;;;2.50;1.62;;;22.10;69.10;;;;;;10710640;32;20029;-73
2023/05/09 18:27:54;;;;;;;1.73;1.05;;;22.10;69.60;;;;;;10637228;33;20060;-73
2023/05/09 18:33:56;;;;;;;1.52;1.37;;;22.00;70.20;;;;;;10622611;33;20503;-73
2023/05/09 18:39:58;;;;;;;1.73;1.30;;;21.90;70.60;;;;;;10638909;33;20033;-73
2023/05/09 18:46:07;;;;;;;1.45;1.00;;;21.80;71.00;;;;;;10637870;33;20412;-73
2023/05/09 18:52:09;;;;;;;2.12;1.40;;;21.80;71.30;;;;;;10637286;33;20029;-73
2023/05/09 18:58:12;;;;;;;3.80;2.12;;;21.80;71.60;;;;;;10685057;33;20029;-73
2023/05/09 19:04:16;;;;;;;3.05;1.90;;;21.80;71.70;;;;;;10715612;33;20022;-73
2023/05/09 19:10:18;;;;;;;5.45;2.12;;;21.60;72.20;;;;;;10720697;33;20021;-73
2023/05/09 19:16:21;;;;;;;2.83;1.83;;;21.60;72.50;;;;;;10717912;33;20063;-73
2023/05/09 19:22:23;;;;;;;2.42;1.40;;;21.50;72.70;;;;;;10717673;33;20453;-73
2023/05/09 19:28:25;;;;;;;4.05;2.65;;;21.40;73.60;;;;;;10715445;32;20102;-73
2023/05/09 19:34:29;;;;;;;3.87;2.30;;;21.30;74.10;;;;;;10718365;33;20110;-73
2023/05/09 19:40:31;;;;;;;3.22;2.08;;;21.30;74.00;;;;;;10716685;33;20025;-73
2023/05/09 19:46:41;;;;;;;3.33;2.22;;;21.30;74.10;;;;;;10713660;33;20059;-73
2023/05/09 19:52:43;;;;;;;3.45;2.00;;;21.20;74.10;;;;;;10717377;33;20021;-73
2023/05/09 19:58:48;;;;;;;3.97;2.53;;;21.10;74.00;;;;;;10718527;33;20347;-73
2023/05/09 20:04:54;;;;;;;3.35;2.28;;;21.00;74.30;;;;;;10716890;33;20016;-73
2023/05/09 20:10:56;;;;;;;3.78;2.58;;;21.10;74.50;;;;;;10717978;33;20017;-73
2023/05/09 20:16:58;;;;;;;3.92;2.55;;;21.10;74.60;;;;;;10717512;33;20020;-73
2023/05/09 20:23:00;;;;;;;3.55;2.10;;;21.10;75.10;;;;;;10728716;33;20033;-73
2023/05/09 20:29:03;;;;;;;3.10;2.08;;;21.10;75.80;;;;;;10702330;33;20353;-73
2023/05/09 20:35:06;;;;;;;5.30;3.08;;;21.10;76.20;;;;;;10715002;33;20045;-73
2023/05/09 20:41:08;;;;;;;5.05;2.95;;;21.10;76.00;;;;;;10716383;33;20017;-73
2023/05/09 20:47:10;;;;;;;5.75;2.75;;;21.00;76.20;;;;;;10713919;33;20052;-73
2023/05/09 20:53:12;;;;;;;5.10;3.30;;;20.90;76.30;;;;;;10715630;33;20017;-73
2023/05/09 20:59:16;;;;;;;7.60;3.33;;;20.80;76.80;;;;;;10717153;33;20444;-73
2023/05/09 21:05:22;;;;;;;8.90;3.35;;;20.80;77.00;;;;;;10715218;33;20449;-73
2023/05/09 21:11:25;;;;;;;5.28;3.30;;;20.80;76.80;;;;;;10714902;33;20026;-73
2023/05/09 21:17:40;;;;;;;3.05;2.33;;;20.80;76.70;;;;;;10713490;33;20022;-73
2023/05/09 21:23:57;;;;;;;3.62;2.58;;;20.80;76.40;;;;;;10712059;33;20016;-73
2023/05/09 21:29:59;;;;;;;3.90;2.47;;;20.80;76.30;;;;;;10712978;33;20289;-73
2023/05/09 21:36:01;;;;;;;3.65;2.50;;;20.90;76.50;;;;;;10712413;33;20013;-73
2023/05/09 21:42:23;;;;;;;4.57;2.67;;;20.80;76.60;;;;;;10715261;33;20388;-73
2023/05/09 21:48:25;;;;;;;3.45;2.50;;;20.80;76.50;;;;;;10712507;33;20056;-73
2023/05/09 21:54:27;;;;;;;5.30;3.30;;;20.80;77.00;;;;;;10713889;33;20330;-73
2023/05/09 22:00:30;;;;;;;3.87;3.12;;;20.70;77.60;;;;;;10715059;33;20025;-73
2023/05/09 22:06:32;;;;;;;4.72;2.80;;;20.60;78.00;;;;;;10711688;33;20021;-73
2023/05/09 22:12:34;;;;;;;4.93;3.40;;;20.60;78.00;;;;;;10714500;33;20043;-73
2023/05/09 22:18:36;;;;;;;4.15;2.55;;;20.50;78.10;;;;;;10713135;33;20028;-72
2023/05/09 22:24:41;;;;;;;3.25;2.55;;;20.50;78.40;;;;;;10712236;33;20033;-73
2023/05/09 22:30:43;;;;;;;3.87;2.47;;;20.50;78.40;;;;;;10714830;33;20145;-73
2023/05/09 22:36:46;;;;;;;6.25;3.20;;;20.40;78.60;;;;;;10721252;33;20362;-74
2023/05/09 22:42:48;;;;;;;3.65;2.05;;;20.30;78.30;;;;;;10719927;33;20414;-74
2023/05/09 22:48:50;;;;;;;2.33;1.37;;;20.20;77.90;;;;;;10720207;33;20025;-76
2023/05/09 22:54:52;;;;;;;2.87;2.20;;;20.10;77.90;;;;;;10717738;33;20013;-76
2023/05/09 23:00:54;;;;;;;1.83;1.37;;;20.10;78.20;;;;;;10720543;33;20025;-73
2023/05/09 23:06:56;;;;;;;5.25;2.03;;;19.90;78.30;;;;;;10717826;33;20094;-74
2023/05/09 23:12:59;;;;;;;2.20;1.62;;;19.90;78.50;;;;;;10715830;32;20403;-74
2023/05/09 23:19:01;;;;;;;5.25;2.30;;;19.80;77.10;;;;;;10718973;33;20051;-74
2023/05/09 23:25:05;;;;;;;3.87;2.50;;;19.60;77.00;;;;;;10719833;33;20017;-72
2023/05/09 23:31:08;;;;;;;2.75;1.90;;;19.50;75.80;;;;;;10717466;33;20024;-75
2023/05/09 23:37:11;;;;;;;3.75;2.25;;;19.30;75.80;;;;;;10716356;33;20467;-74
2023/05/09 23:43:15;;;;;;;4.65;2.62;;;19.30;76.20;;;;;;10714864;33;20430;-74
2023/05/09 23:49:17;;;;;;;2.42;1.60;;;19.30;76.30;;;;;;10714445;33;20016;-74
2023/05/09 23:55:19;;;;;;;3.03;2.15;;;19.30;76.50;;;;;;10905265;27;20058;-74
